Time;durP1;ratioP1;P1;durP2;ratioP2;P2;SDS_P1;SDS_P2;PMS_P1;PMS_P2;Temp;Humidity;BMP_temperature;BMP_pressure;BME280_temperature;BME280_humidity;BME280_pressure;Samples;Min_cycle;Max_cycle;Signal;HPM_P1;HPM_P2
2022/10/14 05:33:13;;;;;;;7.53;4.93;;;14.60;75.50;;;;;;5663205;24;20071;-78
2022/10/14 05:35:39;;;;;;;6.80;4.63;;;14.60;75.70;;;;;;4776829;29;20062;-79
2022/10/14 05:38:05;;;;;;;7.03;4.63;;;14.70;75.80;;;;;;4809820;29;20059;-79
2022/10/14 05:40:31;;;;;;;6.60;4.43;;;14.70;75.80;;;;;;4795892;29;20138;-78
2022/10/14 05:42:57;;;;;;;5.25;4.22;;;14.70;75.80;;;;;;4796089;29;20051;-78
2022/10/14 05:45:22;;;;;;;9.52;4.43;;;14.70;75.90;;;;;;4795435;29;20062;-78
2022/10/14 05:47:48;;;;;;;9.02;4.90;;;14.70;76.00;;;;;;4811268;29;20462;-76
2022/10/14 05:50:14;;;;;;;17.23;5.10;;;14.70;76.00;;;;;;4795357;29;20055;-78
2022/10/14 05:52:40;;;;;;;7.43;4.53;;;14.80;76.10;;;;;;4811448;29;20401;-75
2022/10/14 05:55:07;;;;;;;14.27;5.85;;;14.80;76.20;;;;;;4811352;29;20066;-79
2022/10/14 05:57:33;;;;;;;11.05;4.60;;;14.90;76.30;;;;;;4811450;29;20090;-76
2022/10/14 05:59:59;;;;;;;14.50;5.13;;;14.90;76.40;;;;;;4810959;29;20615;-76
2022/10/14 06:02:25;;;;;;;14.10;4.72;;;14.90;76.80;;;;;;4810981;29;20142;-75
2022/10/14 06:04:51;;;;;;;8.77;4.43;;;15.00;76.70;;;;;;4796012;29;20142;-76
2022/10/14 06:07:17;;;;;;;10.90;4.28;;;15.00;76.40;;;;;;4810941;29;20462;-76
2022/10/14 06:09:43;;;;;;;7.57;4.00;;;15.10;76.40;;;;;;4810808;29;20058;-75
2022/10/14 06:12:09;;;;;;;9.77;4.70;;;15.10;76.40;;;;;;4795385;29;20109;-75
2022/10/14 06:14:37;;;;;;;6.95;4.05;;;15.10;76.30;;;;;;4810742;29;20043;-76
2022/10/14 06:17:04;;;;;;;14.43;4.35;;;15.10;76.20;;;;;;4810841;29;20101;-76
2022/10/14 06:19:30;;;;;;;14.30;5.30;;;15.10;76.20;;;;;;4810829;29;20386;-77
2022/10/14 06:21:56;;;;;;;13.32;4.80;;;15.20;76.20;;;;;;4800797;29;20058;-76
2022/10/14 06:24:22;;;;;;;23.05;6.00;;;15.20;76.20;;;;;;4810261;29;20058;-76
2022/10/14 06:26:48;;;;;;;10.40;5.80;;;15.20;76.10;;;;;;4809890;29;20058;-75
2022/10/14 06:29:14;;;;;;;13.50;4.78;;;15.20;76.00;;;;;;4810564;29;20522;-79
2022/10/14 06:31:40;;;;;;;10.00;4.35;;;15.20;76.00;;;;;;4809609;29;20050;-76
2022/10/14 06:34:06;;;;;;;13.10;5.78;;;15.20;75.90;;;;;;4809639;29;20149;-74
2022/10/14 06:36:32;;;;;;;14.85;5.63;;;15.20;75.90;;;;;;4810279;29;20054;-75
2022/10/14 06:38:58;;;;;;;10.35;4.95;;;15.30;76.10;;;;;;4810571;29;20050;-80
2022/10/14 06:41:24;;;;;;;13.90;4.60;;;15.30;76.10;;;;;;4810261;29;20145;-74
2022/10/14 06:43:50;;;;;;;9.63;5.03;;;15.30;76.20;;;;;;4808265;29;20490;-77
2022/10/14 06:46:16;;;;;;;20.17;7.22;;;15.30;76.20;;;;;;4810120;29;20108;-75
2022/10/14 06:48:41;;;;;;;14.85;6.80;;;15.30;76.10;;;;;;4809454;29;20043;-76
2022/10/14 06:51:08;;;;;;;18.50;8.23;;;15.40;76.10;;;;;;4810520;29;20058;-78
2022/10/14 06:53:34;;;;;;;15.68;8.55;;;15.40;76.10;;;;;;4807594;29;20546;-76
2022/10/14 06:56:02;;;;;;;15.60;6.50;;;15.40;76.00;;;;;;4809123;29;20143;-77
2022/10/14 06:58:28;;;;;;;15.07;7.45;;;15.40;76.00;;;;;;4809905;29;20058;-77
2022/10/14 07:00:54;;;;;;;11.52;6.22;;;15.40;76.10;;;;;;4793933;29;20062;-78
2022/10/14 07:03:20;;;;;;;14.52;6.43;;;15.40;76.20;;;;;;4809449;29;20211;-78
2022/10/14 07:05:46;;;;;;;20.83;9.68;;;15.40;76.30;;;;;;4810083;29;20091;-79
2022/10/14 07:08:12;;;;;;;15.48;10.38;;;15.40;76.10;;;;;;4794372;29;20355;-78
2022/10/14 07:10:37;;;;;;;19.40;9.82;;;15.50;75.80;;;;;;4809440;29;20053;-79
2022/10/14 07:13:03;;;;;;;15.45;9.40;;;15.40;75.50;;;;;;4809602;29;20059;-78
2022/10/14 07:15:29;;;;;;;14.60;9.40;;;15.40;75.60;;;;;;4804277;29;20488;-76
2022/10/14 07:17:54;;;;;;;19.70;9.05;;;15.40;75.60;;;;;;4808678;29;20046;-79
2022/10/14 07:20:20;;;;;;;18.88;8.65;;;15.40;75.70;;;;;;4793944;29;20458;-76
2022/10/14 07:22:46;;;;;;;14.80;8.25;;;15.40;75.70;;;;;;4809091;29;20090;-78
2022/10/14 07:25:40;;;;;;;19.88;8.10;;;15.50;75.90;;;;;;4809397;29;20088;-78
2022/10/14 07:28:44;;;;;;;;;;;;;;;;;;;;;
2022/10/14 07:31:11;;;;;;;23.45;8.23;;;15.50;75.90;;;;;;4809203;29;20043;-78
2022/10/14 07:33:39;;;;;;;23.67;8.73;;;15.50;76.00;;;;;;4805867;29;20082;-78
2022/10/14 07:36:08;;;;;;;23.70;8.20;;;15.50;76.10;;;;;;4791457;30;20438;-80
2022/10/14 07:38:34;;;;;;;15.25;7.18;;;15.50;76.20;;;;;;4776042;30;20451;-79
2022/10/14 07:41:03;;;;;;;16.33;8.00;;;15.50;76.20;;;;;;4761664;30;20112;-79
2022/10/14 07:43:30;;;;;;;23.80;8.45;;;15.50;76.10;;;;;;4791429;30;20094;-78
2022/10/14 07:46:01;;;;;;;16.20;7.30;;;15.50;76.00;;;;;;4776119;30;20116;-79
2022/10/14 07:48:32;;;;;;;16.90;7.18;;;15.50;76.00;;;;;;4791389;30;20046;-79
2022/10/14 07:50:58;;;;;;;18.45;7.60;;;15.50;75.90;;;;;;4790679;30;20400;-79
2022/10/14 07:53:24;;;;;;;18.38;7.13;;;15.50;75.90;;;;;;4791218;30;20130;-77
2022/10/14 07:55:51;;;;;;;14.18;6.43;;;15.50;75.90;;;;;;4775527;30;20123;-77
2022/10/14 07:58:21;;;;;;;14.05;6.13;;;15.50;75.80;;;;;;4791868;30;20062;-78
2022/10/14 08:00:50;;;;;;;16.95;6.45;;;15.50;75.70;;;;;;4790193;29;20371;-78
2022/10/14 08:03:18;;;;;;;12.27;6.28;;;15.50;75.70;;;;;;4791294;30;20071;-78
2022/10/14 08:05:44;;;;;;;12.25;5.72;;;15.50;75.70;;;;;;4791205;30;20051;-79
2022/10/14 08:08:10;;;;;;;12.43;6.18;;;15.50;75.70;;;;;;4791088;30;20070;-77
2022/10/14 08:10:37;;;;;;;14.15;5.40;;;15.50;75.70;;;;;;4791246;30;20055;-79
2022/10/14 08:13:03;;;;;;;9.27;5.72;;;15.50;75.70;;;;;;4791214;30;20126;-77
2022/10/14 08:15:37;;;;;;;12.38;5.07;;;15.60;75.70;;;;;;4791097;30;20371;-80
2022/10/14 08:18:04;;;;;;;10.98;5.60;;;15.60;75.60;;;;;;4790772;30;20379;-77
2022/10/14 08:20:31;;;;;;;13.13;6.80;;;15.60;75.70;;;;;;4774577;30;20126;-79
2022/10/14 08:22:57;;;;;;;9.70;7.47;;;15.50;75.50;;;;;;4789477;30;20058;-79
2022/10/14 08:25:23;;;;;;;12.95;9.98;;;15.60;75.60;;;;;;4759572;30;20066;-80
2022/10/14 08:27:50;;;;;;;11.50;9.57;;;15.50;75.40;;;;;;4790135;30;20043;-80
2022/10/14 08:30:17;;;;;;;11.48;9.13;;;15.50;75.30;;;;;;4789983;30;20470;-80
2022/10/14 08:32:42;;;;;;;12.10;9.02;;;15.60;75.20;;;;;;4790138;30;20153;-80
2022/10/14 08:35:12;;;;;;;11.23;9.20;;;15.50;75.10;;;;;;4789290;29;20122;-79
2022/10/14 08:37:40;;;;;;;10.60;9.02;;;15.50;75.10;;;;;;4790206;30;20066;-80
2022/10/14 08:40:07;;;;;;;11.13;9.68;;;15.50;75.10;;;;;;4789426;30;20058;-79
2022/10/14 08:42:47;;;;;;;13.48;10.00;;;15.50;75.20;;;;;;4789270;30;20055;-79
2022/10/14 08:45:27;;;;;;;13.23;9.77;;;15.50;75.10;;;;;;4790173;30;20065;-80
2022/10/14 08:47:56;;;;;;;11.35;9.50;;;15.50;75.10;;;;;;4790276;30;20055;-79
2022/10/14 08:50:37;;;;;;;11.65;9.82;;;15.50;75.10;;;;;;4773904;30;20063;-78
2022/10/14 08:53:13;;;;;;;12.73;10.10;;;15.50;75.20;;;;;;4790647;30;20130;-79
2022/10/14 08:55:53;;;;;;;12.85;9.85;;;15.50;75.30;;;;;;4790158;30;20132;-79
2022/10/14 08:58:27;;;;;;;12.18;8.60;;;15.50;75.30;;;;;;4789996;30;20375;-78
2022/10/14 09:00:54;;;;;;;10.60;8.18;;;15.60;75.70;;;;;;4774022;30;20126;-80
2022/10/14 09:03:32;;;;;;;10.35;7.10;;;15.50;75.60;;;;;;4790563;30;20055;-79
2022/10/14 09:06:18;;;;;;;10.40;6.63;;;15.50;75.20;;;;;;4788834;29;20474;-81
2022/10/14 09:08:46;;;;;;;11.10;6.95;;;15.60;76.00;;;;;;4789279;30;20143;-81
2022/10/14 09:11:17;;;;;;;16.95;7.40;;;15.80;75.80;;;;;;4790171;30;20074;-80
2022/10/14 09:13:53;;;;;;;14.98;5.65;;;15.90;75.20;;;;;;4789569;30;20054;-82
2022/10/14 09:16:28;;;;;;;10.13;4.63;;;16.10;75.40;;;;;;4789111;30;20510;-79
2022/10/14 09:18:59;;;;;;;10.40;4.85;;;16.30;75.20;;;;;;4774244;30;20055;-81
2022/10/14 09:21:34;;;;;;;10.57;4.70;;;16.40;75.00;;;;;;4768800;30;20063;-81
2022/10/14 09:24:15;;;;;;;8.80;4.28;;;16.40;74.80;;;;;;4766383;30;20364;-82
2022/10/14 09:26:53;;;;;;;16.55;4.22;;;16.50;74.90;;;;;;4758734;30;20138;-77
2022/10/14 09:29:26;;;;;;;8.30;3.50;;;16.60;75.00;;;;;;4789789;30;20051;-76
2022/10/14 09:31:58;;;;;;;17.98;4.53;;;16.70;74.90;;;;;;4789758;30;20047;-77
2022/10/14 09:34:31;;;;;;;8.05;3.25;;;16.70;74.50;;;;;;4798204;29;20066;-77
2022/10/14 09:37:28;;;;;;;15.07;3.10;;;16.70;75.00;;;;;;4806539;29;20425;-74
2022/10/14 09:40:04;;;;;;;17.25;3.80;;;16.70;75.20;;;;;;4797684;29;20134;-77
2022/10/14 09:42:54;;;;;;;10.52;3.35;;;16.70;75.20;;;;;;4789331;30;20051;-80
2022/10/14 09:45:22;;;;;;;15.95;3.58;;;16.70;75.00;;;;;;4789662;30;20054;-81
2022/10/14 09:47:49;;;;;;;17.45;3.00;;;16.70;75.30;;;;;;4773789;30;20483;-87
2022/10/14 09:50:41;;;;;;;11.48;3.58;;;16.80;75.50;;;;;;4774003;30;20082;-86
2022/10/14 10:00:31;;;;;;;11.23;3.05;;;17.00;75.00;;;;;;4755462;30;20130;-84
2022/10/14 10:02:57;;;;;;;9.70;3.30;;;17.10;74.90;;;;;;4774033;30;20120;-85
2022/10/14 10:05:32;;;;;;;17.48;3.30;;;17.20;74.90;;;;;;4774333;30;20043;-81
2022/10/14 10:08:13;;;;;;;9.90;2.60;;;17.20;74.30;;;;;;4773343;30;20463;-83
2022/10/14 10:10:39;;;;;;;11.98;3.33;;;17.20;74.70;;;;;;4756192;29;20046;-81
2022/10/14 10:13:32;;;;;;;16.23;3.17;;;17.20;74.90;;;;;;4807311;29;20201;-79
2022/10/14 10:16:00;;;;;;;9.80;2.53;;;17.30;75.00;;;;;;4807796;29;20051;-80
2022/10/14 10:18:26;;;;;;;11.52;3.55;;;17.20;75.00;;;;;;4807509;29;20544;-79
2022/10/14 10:21:23;;;;;;;7.25;4.00;;;17.30;75.20;;;;;;4789140;29;20091;-77
2022/10/14 10:24:01;;;;;;;10.80;5.13;;;17.30;75.20;;;;;;4774106;29;20412;-79
2022/10/14 10:26:32;;;;;;;12.32;5.95;;;17.20;75.10;;;;;;4781883;30;20055;-78
2022/10/14 10:29:01;;;;;;;9.43;5.72;;;17.30;75.10;;;;;;4762416;30;20066;-80
2022/10/14 10:31:49;;;;;;;11.45;5.68;;;17.20;75.10;;;;;;4792666;30;20154;-80
2022/10/14 10:34:48;;;;;;;11.43;6.13;;;17.20;75.10;;;;;;4786472;29;20060;-81
2022/10/14 10:37:25;;;;;;;12.48;5.35;;;17.10;75.40;;;;;;4792062;30;20448;-84
2022/10/14 10:40:07;;;;;;;9.05;4.88;;;17.10;75.60;;;;;;4776556;30;20099;-80
2022/10/14 10:43:12;;;;;;;9.43;4.68;;;17.10;75.70;;;;;;4793000;30;20051;-81
2022/10/14 10:45:43;;;;;;;14.18;4.53;;;17.00;75.90;;;;;;4750598;30;20067;-83
2022/10/14 10:48:23;;;;;;;10.77;4.53;;;17.00;76.10;;;;;;4776582;30;20051;-82
2022/10/14 10:51:03;;;;;;;12.35;4.65;;;17.00;76.30;;;;;;4761380;30;20059;-81
2022/10/14 10:53:50;;;;;;;11.68;5.18;;;17.00;76.40;;;;;;4792303;30;20097;-84
2022/10/14 10:56:37;;;;;;;11.30;5.15;;;17.00;76.40;;;;;;4776234;30;20055;-81
2022/10/14 10:59:22;;;;;;;13.50;6.50;;;16.90;76.50;;;;;;4759762;30;20087;-81
2022/10/14 11:02:09;;;;;;;11.05;4.97;;;17.00;76.60;;;;;;4775630;30;20043;-83
2022/10/14 11:05:08;;;;;;;11.60;5.70;;;16.90;76.60;;;;;;4776135;30;20104;-83
2022/10/14 11:14:08;;;;;;;14.25;5.18;;;16.80;76.50;;;;;;4761405;30;20079;-84
2022/10/14 11:16:49;;;;;;;13.45;4.65;;;16.80;76.90;;;;;;4775958;30;20128;-82
2022/10/14 11:19:29;;;;;;;12.45;4.97;;;16.80;76.90;;;;;;4776251;30;20471;-82
2022/10/14 11:22:27;;;;;;;10.95;5.15;;;16.80;76.90;;;;;;4776177;30;20353;-80
2022/10/14 11:25:18;;;;;;;11.98;4.28;;;16.80;76.90;;;;;;4776515;30;20051;-81
2022/10/14 11:28:25;;;;;;;10.00;3.63;;;16.80;76.90;;;;;;4791954;30;20051;-84
2022/10/14 11:31:40;;;;;;;8.60;4.18;;;16.70;76.80;;;;;;4766399;30;20409;-81
2022/10/14 11:34:27;;;;;;;7.90;3.58;;;16.80;76.90;;;;;;4725241;30;20487;-82
2022/10/14 11:37:02;;;;;;;6.40;3.65;;;16.70;76.50;;;;;;4804273;29;20230;-84
2022/10/14 11:39:49;;;;;;;11.68;4.05;;;16.70;76.10;;;;;;4809711;29;20411;-82
2022/10/14 11:42:37;;;;;;;5.15;3.30;;;16.60;76.10;;;;;;4779150;29;20062;-82
2022/10/14 11:45:29;;;;;;;5.07;3.65;;;16.70;76.60;;;;;;4810055;29;20058;-82
2022/10/14 11:48:07;;;;;;;6.35;3.58;;;16.70;76.80;;;;;;4799897;29;20062;-82
2022/10/14 11:50:39;;;;;;;5.70;3.90;;;16.70;76.80;;;;;;4792484;29;20042;-82
2022/10/14 11:53:19;;;;;;;5.95;3.80;;;16.70;76.80;;;;;;4793407;29;20055;-82
2022/10/14 11:55:57;;;;;;;6.95;3.47;;;16.70;76.90;;;;;;4807310;29;20133;-82
2022/10/14 11:58:27;;;;;;;4.18;2.97;;;16.70;76.80;;;;;;4806455;29;20083;-82
2022/10/14 12:00:57;;;;;;;6.05;3.20;;;16.70;76.80;;;;;;4792044;29;20054;-80
2022/10/14 12:03:47;;;;;;;3.72;2.53;;;16.70;76.80;;;;;;4809227;29;20164;-81
2022/10/14 12:06:29;;;;;;;3.10;2.75;;;16.80;76.80;;;;;;4808642;29;20051;-85
2022/10/14 12:09:32;;;;;;;3.50;2.92;;;16.80;76.80;;;;;;4808509;29;20066;-80
2022/10/14 12:12:04;;;;;;;4.35;2.90;;;16.80;76.80;;;;;;4793421;29;20055;-83
2022/10/14 12:14:56;;;;;;;3.55;2.95;;;16.80;76.80;;;;;;4808466;29;20066;-80
2022/10/14 12:17:49;;;;;;;4.18;2.70;;;16.70;76.80;;;;;;4809074;29;20047;-81
2022/10/14 12:20:43;;;;;;;4.03;2.75;;;16.80;76.90;;;;;;4809143;29;20058;-81
2022/10/14 12:23:13;;;;;;;4.32;2.75;;;16.70;76.80;;;;;;4792501;29;20057;-82
2022/10/14 12:25:49;;;;;;;3.58;3.03;;;16.70;76.90;;;;;;4792695;29;20547;-82
2022/10/14 12:28:18;;;;;;;3.78;2.67;;;16.70;77.00;;;;;;4792990;29;20065;-81
2022/10/14 12:30:46;;;;;;;4.88;3.50;;;16.70;77.00;;;;;;4792667;29;20050;-83
2022/10/14 12:33:15;;;;;;;4.53;2.95;;;16.70;77.00;;;;;;4807921;29;20159;-84
2022/10/14 12:35:58;;;;;;;4.43;2.90;;;16.70;77.10;;;;;;4792755;29;20111;-81
2022/10/14 12:38:26;;;;;;;4.75;3.50;;;16.70;77.10;;;;;;4803131;29;20111;-83
2022/10/14 12:40:51;;;;;;;3.42;2.60;;;16.70;77.10;;;;;;4806565;29;20176;-81
2022/10/14 12:43:28;;;;;;;5.50;2.85;;;16.70;77.20;;;;;;4805166;29;20262;-84
2022/10/14 12:46:09;;;;;;;3.00;2.42;;;16.70;77.30;;;;;;4793736;29;20051;-82
2022/10/14 12:48:36;;;;;;;3.35;3.05;;;16.70;77.30;;;;;;4792243;29;20050;-80
2022/10/14 12:51:14;;;;;;;3.47;2.85;;;16.70;77.40;;;;;;4777744;29;20137;-81
2022/10/14 12:53:53;;;;;;;4.57;2.80;;;16.70;77.50;;;;;;4808239;29;20391;-82
2022/10/14 12:56:29;;;;;;;4.88;2.92;;;16.70;77.50;;;;;;4807830;29;20035;-81
2022/10/14 12:59:00;;;;;;;3.80;2.90;;;16.60;77.50;;;;;;4795692;29;20062;-80
2022/10/14 13:01:26;;;;;;;5.10;3.17;;;16.70;77.60;;;;;;4825834;29;20111;-83
2022/10/14 13:03:57;;;;;;;3.67;3.10;;;16.70;77.60;;;;;;4810597;29;20125;-82
2022/10/14 13:06:35;;;;;;;5.65;3.42;;;16.60;77.70;;;;;;4807310;29;20062;-82
2022/10/14 13:09:16;;;;;;;5.55;3.05;;;16.70;77.80;;;;;;4794980;29;20481;-79
2022/10/14 13:11:44;;;;;;;4.57;2.80;;;16.60;77.80;;;;;;4792226;29;20077;-81
2022/10/14 13:14:28;;;;;;;4.78;3.53;;;16.60;78.00;;;;;;4792714;29;20123;-80
2022/10/14 13:16:54;;;;;;;;;;;16.60;78.10;;;;;;4792098;29;20051;-79
2022/10/14 13:19:31;;;;;;;5.88;2.55;;;16.60;77.70;;;;;;4807805;29;19986;-81
2022/10/14 13:21:58;;;;;;;5.75;2.22;;;16.60;78.00;;;;;;4791388;29;20097;-80
2022/10/14 13:24:40;;;;;;;2.55;1.85;;;16.60;77.90;;;;;;4791771;29;20058;-78
2022/10/14 13:27:14;;;;;;;6.63;2.50;;;16.50;77.60;;;;;;4807157;29;20065;-81
2022/10/14 13:30:15;;;;;;;6.57;2.78;;;16.50;78.00;;;;;;4791071;29;20058;-83
2022/10/14 13:32:58;;;;;;;5.63;2.50;;;16.50;78.00;;;;;;4770570;29;20075;-83
2022/10/14 13:35:30;;;;;;;6.15;2.30;;;16.50;78.30;;;;;;4774821;29;20059;-84
2022/10/14 13:38:14;;;;;;;7.53;2.25;;;16.50;78.40;;;;;;4791752;29;20498;-82
2022/10/14 13:40:47;;;;;;;4.70;2.28;;;16.50;78.50;;;;;;4792111;29;20085;-83
2022/10/14 13:43:39;;;;;;;7.70;2.53;;;16.50;78.50;;;;;;4791859;29;20054;-81
2022/10/14 13:46:21;;;;;;;6.88;2.33;;;16.50;78.80;;;;;;4791329;29;20078;-82
2022/10/14 13:48:55;;;;;;;6.90;2.13;;;16.50;78.80;;;;;;4791643;29;20078;-83
2022/10/14 13:51:39;;;;;;;8.68;2.78;;;16.50;78.90;;;;;;4776718;29;20042;-83
2022/10/14 13:54:15;;;;;;;6.20;1.90;;;16.50;79.00;;;;;;4807243;29;20053;-78
2022/10/14 13:56:40;;;;;;;11.05;2.67;;;16.50;79.00;;;;;;4807676;29;20123;-80
2022/10/14 13:59:21;;;;;;;6.57;1.65;;;16.50;78.90;;;;;;4810156;29;20050;-81
2022/10/14 14:01:48;;;;;;;7.90;1.55;;;16.50;79.10;;;;;;4811209;29;20051;-79
2022/10/14 14:04:24;;;;;;;5.25;1.60;;;16.60;79.20;;;;;;4795468;29;20499;-81
2022/10/14 14:06:50;;;;;;;11.55;1.67;;;16.60;79.20;;;;;;4811121;29;20363;-77
2022/10/14 14:09:26;;;;;;;10.85;2.35;;;16.60;79.30;;;;;;4811517;29;20137;-81
2022/10/14 14:11:54;;;;;;;7.97;2.30;;;16.60;79.40;;;;;;4780127;29;20039;-81
2022/10/14 14:14:36;;;;;;;10.15;2.22;;;16.70;79.50;;;;;;4794885;29;20046;-80
2022/10/14 14:17:11;;;;;;;16.23;2.80;;;16.70;79.20;;;;;;4794725;29;20101;-79
2022/10/14 14:19:42;;;;;;;16.80;2.55;;;16.70;79.60;;;;;;4810959;29;20051;-80
2022/10/14 14:22:27;;;;;;;14.18;2.63;;;16.70;79.80;;;;;;4810040;29;20051;-82
2022/10/14 14:25:08;;;;;;;11.68;2.63;;;16.70;79.80;;;;;;4805224;29;20452;-78
2022/10/14 14:27:34;;;;;;;17.23;3.17;;;16.70;79.80;;;;;;4810028;29;20054;-76
2022/10/14 14:30:01;;;;;;;9.23;2.45;;;16.70;79.80;;;;;;4810734;29;20130;-78
2022/10/14 14:32:31;;;;;;;13.70;3.00;;;16.70;79.80;;;;;;4811003;29;20417;-79
2022/10/14 14:34:57;;;;;;;11.80;3.10;;;16.80;80.00;;;;;;4810175;29;20152;-77
2022/10/14 14:37:30;;;;;;;12.05;2.60;;;16.80;80.00;;;;;;4794960;29;20062;-76
2022/10/14 14:40:32;;;;;;;14.27;3.55;;;16.80;80.20;;;;;;4810589;29;20054;-72
2022/10/14 14:43:01;;;;;;;9.98;3.95;;;16.80;80.80;;;;;;4754834;30;20060;-80
2022/10/14 14:45:35;;;;;;;6.47;2.92;;;16.80;80.40;;;;;;4784791;29;20138;-78
2022/10/14 14:48:06;;;;;;;9.27;2.75;;;16.80;80.40;;;;;;4794034;29;20387;-79
2022/10/14 14:50:36;;;;;;;9.85;2.83;;;16.80;80.40;;;;;;4794680;29;20119;-78
2022/10/14 14:53:10;;;;;;;7.20;3.28;;;16.80;80.30;;;;;;4795217;29;20054;-81
2022/10/14 14:55:41;;;;;;;8.40;2.30;;;16.80;80.20;;;;;;4810536;29;20101;-80
2022/10/14 14:58:26;;;;;;;8.85;2.47;;;16.80;80.10;;;;;;4810373;29;20084;-80
2022/10/14 15:00:53;;;;;;;7.20;2.17;;;16.80;80.00;;;;;;4779672;29;20054;-81
2022/10/14 15:03:24;;;;;;;7.13;2.38;;;16.80;79.80;;;;;;4794465;29;20086;-78
2022/10/14 15:05:54;;;;;;;7.95;2.83;;;16.80;79.80;;;;;;4794344;29;20066;-78
2022/10/14 15:08:26;;;;;;;6.53;2.13;;;16.80;79.60;;;;;;4794603;29;20373;-78
2022/10/14 15:10:54;;;;;;;2.47;1.73;;;16.80;79.60;;;;;;4793382;29;20051;-80
2022/10/14 15:13:27;;;;;;;8.55;2.15;;;16.80;79.50;;;;;;4795027;29;20062;-79
2022/10/14 15:15:53;;;;;;;6.45;2.10;;;16.80;79.40;;;;;;4794190;29;20429;-78
2022/10/14 15:18:27;;;;;;;5.13;1.85;;;16.80;79.40;;;;;;4810793;29;20122;-80
2022/10/14 15:21:12;;;;;;;;;;;16.80;79.20;;;;;;4811041;29;20053;-77
2022/10/14 15:23:59;;;;;;;5.85;1.80;;;16.80;79.10;;;;;;4809752;29;19936;-77
2022/10/14 15:26:29;;;;;;;3.60;1.55;;;16.80;79.10;;;;;;4793894;29;20058;-76
2022/10/14 15:29:14;;;;;;;3.72;2.08;;;16.80;79.60;;;;;;4809788;29;20340;-77
2022/10/14 15:31:41;;;;;;;6.63;1.92;;;16.80;78.90;;;;;;4810456;29;20134;-77
2022/10/14 15:34:19;;;;;;;4.03;1.38;;;16.90;78.90;;;;;;4793241;29;20094;-75
2022/10/14 15:36:47;;;;;;;6.15;2.17;;;16.80;78.80;;;;;;4809516;29;20137;-76
2022/10/14 15:39:13;;;;;;;8.32;2.13;;;16.80;78.90;;;;;;4809530;29;20055;-79
2022/10/14 15:41:40;;;;;;;5.93;2.00;;;16.80;79.10;;;;;;4809741;29;20432;-75
2022/10/14 15:44:06;;;;;;;8.38;2.20;;;16.80;79.50;;;;;;4809044;29;20495;-79
2022/10/14 15:49:26;;;;;;;7.88;2.45;;;16.70;80.10;;;;;;4807542;29;20213;-81
2022/10/14 15:51:52;;;;;;;10.77;3.00;;;16.70;80.30;;;;;;4793266;29;20054;-77
2022/10/14 15:54:17;;;;;;;15.77;3.28;;;16.70;80.60;;;;;;4809272;29;20042;-82
2022/10/14 15:56:57;;;;;;;12.43;3.20;;;16.80;80.90;;;;;;4792730;29;20050;-86
2022/10/14 15:59:23;;;;;;;24.27;10.07;;;16.80;81.40;;;;;;4792960;29;20055;-83
2022/10/14 16:01:49;;;;;;;24.35;7.22;;;16.80;81.60;;;;;;4808893;29;20057;-81
2022/10/14 16:04:23;;;;;;;19.50;6.15;;;16.80;82.10;;;;;;4809110;29;20086;-80
2022/10/14 16:06:53;;;;;;;18.05;5.03;;;16.80;82.70;;;;;;4808539;29;20146;-81
2022/10/14 16:09:20;;;;;;;15.10;4.53;;;16.80;83.00;;;;;;4809570;29;20047;-80
2022/10/14 16:11:46;;;;;;;18.92;5.22;;;16.80;83.40;;;;;;4793128;29;20065;-83
2022/10/14 16:14:12;;;;;;;8.90;4.68;;;16.80;83.50;;;;;;4793416;29;20065;-81
2022/10/14 16:16:44;;;;;;;15.07;5.13;;;16.80;83.60;;;;;;4808659;29;20514;-82
2022/10/14 16:19:11;;;;;;;9.95;3.90;;;16.80;83.70;;;;;;4792874;29;20078;-81
2022/10/14 16:21:37;;;;;;;11.02;3.85;;;16.80;83.80;;;;;;4808217;29;20050;-80
2022/10/14 16:24:04;;;;;;;14.10;4.05;;;16.80;83.80;;;;;;4792135;29;20126;-80
2022/10/14 16:26:30;;;;;;;9.80;3.58;;;16.70;83.90;;;;;;4807375;29;20059;-82
2022/10/14 16:28:56;;;;;;;16.15;4.45;;;16.80;83.70;;;;;;4792202;29;20059;-82
2022/10/14 16:31:22;;;;;;;12.02;4.45;;;16.80;83.70;;;;;;4792467;29;20130;-85
2022/10/14 16:33:49;;;;;;;14.13;4.53;;;16.70;83.60;;;;;;4808260;29;20147;-80
2022/10/14 16:36:16;;;;;;;13.98;4.18;;;16.80;83.60;;;;;;4792563;29;20155;-81
2022/10/14 16:38:42;;;;;;;13.50;4.40;;;16.80;83.50;;;;;;4808668;29;20050;-83
2022/10/14 16:41:09;;;;;;;14.07;4.30;;;16.70;83.30;;;;;;4808135;29;20058;-85
2022/10/14 16:43:35;;;;;;;15.00;4.70;;;16.80;83.20;;;;;;4792594;29;20344;-76
2022/10/14 16:46:05;;;;;;;14.65;4.82;;;16.80;83.10;;;;;;4808364;29;20062;-80
2022/10/14 16:48:34;;;;;;;10.05;4.53;;;16.80;83.00;;;;;;4808762;29;20173;-76
2022/10/14 16:51:00;;;;;;;16.38;5.07;;;16.80;82.80;;;;;;4791660;29;20064;-80
2022/10/14 16:53:39;;;;;;;9.90;3.85;;;16.80;82.70;;;;;;4789723;29;20490;-73
2022/10/14 16:56:51;;;;;;;11.20;3.85;;;16.80;82.70;;;;;;4791548;29;20135;-79
2022/10/14 16:58:54;;;;;;;12.55;3.65;;;16.80;82.60;;;;;;4792052;29;20435;-78
2022/10/14 17:01:20;;;;;;;12.55;3.08;;;16.80;82.50;;;;;;4808053;29;20336;-79
2022/10/14 17:03:46;;;;;;;10.75;3.33;;;16.80;82.40;;;;;;4807893;29;20123;-79
2022/10/14 17:06:12;;;;;;;11.95;3.83;;;16.90;82.30;;;;;;4808368;29;20058;-79
2022/10/14 17:08:40;;;;;;;13.50;3.70;;;16.80;82.30;;;;;;4791921;29;20123;-77
2022/10/14 17:11:07;;;;;;;17.17;3.88;;;16.80;82.20;;;;;;4808295;29;20074;-76
2022/10/14 17:13:33;;;;;;;10.45;2.92;;;16.80;82.20;;;;;;4808029;29;20057;-78
2022/10/14 17:16:02;;;;;;;9.25;3.25;;;16.80;82.10;;;;;;4807837;29;20192;-78
2022/10/14 17:18:29;;;;;;;7.72;3.20;;;16.80;82.00;;;;;;4808198;29;20416;-76
2022/10/14 17:21:02;;;;;;;10.52;3.35;;;16.80;81.90;;;;;;4800377;29;20416;-77
2022/10/14 17:23:30;;;;;;;9.70;3.28;;;16.90;81.90;;;;;;4808112;29;20057;-79
2022/10/14 17:26:00;;;;;;;8.18;3.30;;;16.80;81.70;;;;;;4808375;29;20050;-78
2022/10/14 17:28:26;;;;;;;7.60;3.25;;;16.80;81.70;;;;;;4808269;29;20067;-77
2022/10/14 17:30:52;;;;;;;7.55;4.50;;;16.80;81.40;;;;;;4807913;29;20054;-76
2022/10/14 17:33:18;;;;;;;6.63;5.05;;;16.80;80.90;;;;;;4807025;29;20054;-77
2022/10/14 17:35:44;;;;;;;6.03;4.70;;;16.80;80.30;;;;;;4807815;29;20062;-78
2022/10/14 17:38:09;;;;;;;6.88;5.35;;;16.80;80.10;;;;;;4807606;29;20188;-76
2022/10/14 17:40:35;;;;;;;7.50;5.53;;;16.70;79.80;;;;;;4807923;29;20099;-78
2022/10/14 17:43:01;;;;;;;6.18;5.53;;;16.70;79.90;;;;;;4807510;29;20086;-75
2022/10/14 17:45:27;;;;;;;6.28;4.85;;;16.60;80.00;;;;;;4807067;29;20113;-75
2022/10/14 17:47:54;;;;;;;5.47;4.90;;;16.60;80.20;;;;;;4807642;29;20059;-77
2022/10/14 17:50:21;;;;;;;8.90;5.32;;;16.50;80.20;;;;;;4807454;29;20043;-75
2022/10/14 17:52:48;;;;;;;6.00;5.35;;;16.50;80.30;;;;;;4807157;29;20061;-78
2022/10/14 17:55:14;;;;;;;6.50;5.15;;;16.50;80.50;;;;;;4807521;29;20434;-76
2022/10/14 17:57:40;;;;;;;5.90;4.65;;;16.50;80.60;;;;;;4806876;29;20046;-76
2022/10/14 18:00:06;;;;;;;5.03;4.50;;;16.50;80.60;;;;;;4807683;29;20451;-76
2022/10/14 18:02:32;;;;;;;5.63;3.95;;;16.60;80.60;;;;;;4807366;29;20055;-74
2022/10/14 18:04:57;;;;;;;5.32;4.07;;;16.60;80.60;;;;;;4791652;29;20471;-77
2022/10/14 18:07:23;;;;;;;9.65;4.30;;;16.60;80.50;;;;;;4807415;29;20528;-75
2022/10/14 18:09:49;;;;;;;6.88;3.92;;;16.60;80.30;;;;;;4807446;29;20122;-77
2022/10/14 18:12:15;;;;;;;6.68;3.88;;;16.60;80.20;;;;;;4807550;29;20457;-84
2022/10/14 18:14:41;;;;;;;5.38;4.03;;;16.60;80.20;;;;;;4807062;29;20475;-75
2022/10/14 18:17:09;;;;;;;4.60;3.33;;;16.60;80.20;;;;;;4807854;29;20062;-77
2022/10/14 18:19:35;;;;;;;5.50;3.55;;;16.60;80.30;;;;;;4807159;29;20122;-75
2022/10/14 18:22:02;;;;;;;4.15;2.80;;;16.70;80.40;;;;;;4807731;29;20129;-77
2022/10/14 18:24:28;;;;;;;4.07;3.20;;;16.60;80.30;;;;;;4807704;29;20130;-76
2022/10/14 18:26:54;;;;;;;4.75;2.95;;;16.70;80.30;;;;;;4807568;29;20180;-74
2022/10/14 18:29:20;;;;;;;4.70;2.47;;;16.60;80.20;;;;;;4807949;29;20458;-76
2022/10/14 18:31:47;;;;;;;4.82;2.80;;;16.60;80.30;;;;;;4807954;29;20058;-75
2022/10/14 18:34:13;;;;;;;4.35;2.30;;;16.70;80.30;;;;;;4807315;29;20367;-75
2022/10/14 18:36:39;;;;;;;3.72;2.45;;;16.60;80.30;;;;;;4807535;29;20055;-79
2022/10/14 18:39:07;;;;;;;3.95;2.33;;;16.70;80.40;;;;;;4807564;29;20089;-81
2022/10/14 18:41:35;;;;;;;4.82;2.50;;;16.60;80.30;;;;;;4807289;29;20050;-76
2022/10/14 18:44:01;;;;;;;4.05;2.88;;;16.70;80.40;;;;;;4807266;29;20062;-79
2022/10/14 18:46:32;;;;;;;5.60;3.03;;;16.70;80.60;;;;;;4810227;29;20047;-74
2022/10/14 18:48:59;;;;;;;4.95;2.38;;;16.70;80.80;;;;;;4810585;29;20130;-76
2022/10/14 18:51:28;;;;;;;4.20;2.30;;;16.70;81.00;;;;;;4810681;29;20134;-76
2022/10/14 18:53:57;;;;;;;3.03;2.42;;;16.70;81.00;;;;;;4794493;29;20138;-78
2022/10/14 18:56:26;;;;;;;5.18;3.45;;;16.70;81.10;;;;;;4807933;29;20112;-77
2022/10/14 18:58:58;;;;;;;5.15;3.78;;;16.70;81.10;;;;;;4794829;29;20066;-77